KNKX/NKX METAR and TAF weather

Enter ICAO airport designator
Station Type Date Time Source
KNKX METAR 2022/06/28 23:55 UTC NOAA

KNKX 282355Z 22006KT 10SM CLR 28/14 A2997 RMK AO2 SLP143 T02780144 10322 20278 58008


Station Type Date Time Source
KNKX Decoded METAR 2022/06/28 23:55 UTC NOAA

MCAS MIRAMAR, CA, United States (KNKX) 32-52N 117-09W 146M
Jun 28, 2022 - 07:55 PM EDT / 2022.06.28 2355 UTC
Wind: from the SW (220 degrees) at 7 MPH (6 KT):0
Visibility: 10 mile(s):0
Sky conditions: clear
Temperature: 82.0 F (27.8 C)
Dew Point: 57.9 F (14.4 C)
Relative Humidity: 43%
Pressure (altimeter): 29.97 in. Hg (1014 hPa)
Pressure tendency: 0.02 inches (0.8 hPa) lower than three hours ago
ob: KNKX 282355Z 22006KT 10SM CLR 28/14 A2997 RMK AO2 SLP143 T02780144 10322 20278 58008
cycle: 0

Station Type Date Time Source
KNKX TAF 2022/06/28 21:09 UTC NOAA

TAF TAF KNKX 2821/2921 23007KT 9999 SKC QNH3003INS
FM290430 VRB05KT 9999 FEW100 QNH3001INS
FM290830 VRB05KT 9999 FEW010 QNH3000INS T31/2822Z T16/2913Z

Example: see airport list